Terminal Aerodrome Forecast
Issued by NWS

Home | Current Version | Previous Version | Text Only | Print | Product List | Glossary On
Versions: 1 2 3 4 5 6 7 8 9 10 11 12 13 14 15 16 17 18 19 20 21 22 23 24
000
FTUS44 KEWX 250700 AAA
TAFSSF
TAF AMD
KSSF 250700Z 2507/2606 18004KT P6SM SKC
     FM251400 17014G24KT P6SM FEW250
     FM260530 17010KT P6SM BKN016=

USA.gov is the U.S. government's official web portal to all federal, state and local government web resources and services.